Anna G — 5BNB4 — position and weather

sailwx.info

Track history (hours):
 
Tides and Currents Weather Stations Pressure Air Temp Water Temp Dewpoint Dewpoint Depression Visibility Wind Speed Wind Dir Waves Ship Positions

Anna G

Last reported at 2017-Oct-19 19:16 UTC. Time now 2017-Oct-20 11:03 UTC.
Position N 51°43' W 005°59'.

Length 101 m; draft 4.7 m.

Type: Cargo ship. MMSI: 212075000.

Date/timePositionNaut miles runAvg speedWind from/ knotsBaromVisibWave heightAir tempDewpointWater temp
2017-Oct-19 19:16N 51°43' W 005°59'3 7.1
2017-Oct-19 18:53N 51°45' W 005°57'3 6.7
2017-Oct-19 18:23N 51°49' W 005°56'3 6.6
2017-Oct-19 18:00N 51°51' W 005°55'3 6.4
2017-Oct-19 17:29N 51°54' W 005°54'3 6.2
2017-Oct-19 17:00N 51°57' W 005°54'4 7.5
2017-Oct-19 16:30N 52°01' W 005°53'4 7.8
2017-Oct-19 16:00N 52°05' W 005°53'4 8.8
2017-Oct-19 15:30N 52°09' W 005°52'510.9
2017-Oct-19 15:00N 52°15' W 005°51'612.0
2017-Oct-19 14:30N 52°21' W 005°50'612.6
2017-Oct-19 14:00N 52°27' W 005°50'713.0
2017-Oct-19 13:30N 52°33' W 005°49'713.3
2017-Oct-19 13:00N 52°40' W 005°50'3212.3
2017-Oct-19 10:26N 53°11' W 005°60'511.6
2017-Oct-19 09:59N 53°16' W 006°01'510.5
2017-Oct-19 09:28N 53°20' W 006°07'3 6.0
2017-Oct-19 08:57N 53°21' W 006°12'0 0.0
2017-Oct-19 08:27N 53°21' W 006°12'0 0.0
2017-Oct-19 04:45N 53°21' W 006°12'0 1.1
2017-Oct-19 04:30N 53°21' W 006°12'1310.3
2017-Oct-19 03:15N 53°22' W 005°50'7712.0
2017-Oct-18 20:49N 53°34' W 003°42'412.4
2017-Oct-18 20:30N 53°33' W 003°35'612.2
2017-Oct-18 20:00N 53°33' W 003°25'5 9.1
2017-Oct-18 19:31N 53°32' W 003°18'4 7.9
2017-Oct-18 19:00N 53°32' W 003°11'5 9.9
2017-Oct-18 18:30N 53°29' W 003°04'2 4.9
2017-Oct-18 18:00N 53°27' W 003°01'0 0.0
2017-Oct-18 17:30N 53°27' W 003°01'0 0.0
2017-Oct-18 17:00N 53°27' W 003°01'1 1.3
2017-Oct-18 16:30N 53°28' W 003°02'0 0.1
2017-Oct-18 15:58N 53°28' W 003°02'0 0.0
2017-Oct-18 15:28N 53°28' W 003°02'0 0.0
2017-Oct-18 14:58N 53°28' W 003°02'0 0.0
2017-Oct-18 13:55N 53°28' W 003°02'0 0.0
2017-Oct-18 13:28N 53°28' W 003°02'0 0.0
2017-Oct-18 12:58N 53°28' W 003°02'0 0.0
2017-Oct-18 12:28N 53°28' W 003°02'0 0.0
2017-Oct-18 11:55N 53°28' W 003°02'0 0.0
2017-Oct-18 11:28N 53°28' W 003°02'0 0.0
2017-Oct-18 10:58N 53°28' W 003°02'0 0.0
2017-Oct-18 10:28N 53°28' W 003°02'0 0.0
2017-Oct-18 09:55N 53°28' W 003°02'0 0.0
2017-Oct-18 09:28N 53°28' W 003°02'0 0.0
2017-Oct-18 08:58N 53°28' W 003°02'0 0.0
2017-Oct-18 08:28N 53°28' W 003°02'0 0.0
2017-Oct-18 07:55N 53°28' W 003°02'0 0.0
2017-Oct-18 07:30N 53°28' W 003°02'1 1.3
2017-Oct-18 07:01N 53°27' W 003°01'0 0.2
2017-Oct-18 06:30N 53°27' W 003°01'0 0.5
2017-Oct-18 06:00N 53°27' W 003°01'0 1.0
2017-Oct-18 05:30N 53°27' W 003°02'3 5.8
2017-Oct-18 05:00N 53°29' W 003°05'4 8.5
2017-Oct-18 04:30N 53°32' W 003°11'510.2
2017-Oct-18 04:00N 53°31' W 003°20'4 7.6
2017-Oct-18 03:30N 53°31' W 003°26'4 8.1
2017-Oct-18 03:00N 53°31' W 003°33'4 7.7
2017-Oct-18 02:30N 53°31' W 003°39'4 7.5
2017-Oct-18 02:00N 53°31' W 003°46'4 7.6
2017-Oct-18 01:30N 53°31' W 003°52'5 9.4
2017-Oct-18 01:01N 53°30' W 003°60'5 9.6
2017-Oct-18 00:30N 53°30' W 004°08'12810.0
2017-Oct-17 11:44N 51°37' W 005°46'311.2
2017-Oct-17 11:30N 51°36' W 005°43'511.0
2017-Oct-17 11:00N 51°34' W 005°35'510.9
2017-Oct-17 10:30N 51°32' W 005°27'510.8
2017-Oct-17 10:00N 51°29' W 005°19'510.9
2017-Oct-17 09:30N 51°26' W 005°12'611.4
2017-Oct-17 09:00N 51°23' W 005°04'611.5
2017-Oct-17 08:30N 51°20' W 004°56'1611.7
2017-Oct-17 07:07N 51°13' W 004°33'112.3
2017-Oct-17 07:00N 51°11' W 004°32'11 1.6
2017-Oct-17 00:19N 51°02' W 004°23'0 0.1
2017-Oct-16 18:44N 51°02' W 004°23'1 0.2
2017-Oct-16 16:20N 51°02' W 004°23'0 0.3
2017-Oct-16 15:59N 51°02' W 004°23'0 0.9
2017-Oct-16 15:30N 51°02' W 004°23'3 7.0
2017-Oct-16 15:00N 51°06' W 004°24'9 8.7
2017-Oct-16 14:00N 51°13' W 004°30'610.0
2017-Oct-16 13:27N 51°17' W 004°36'510.7
2017-Oct-16 12:58N 51°20' W 004°43'511.4
2017-Oct-16 12:30N 51°23' W 004°51'611.6
2017-Oct-16 12:00N 51°24' W 004°60'612.7
2017-Oct-16 11:30N 51°25' W 005°10'612.3
2017-Oct-16 11:00N 51°26' W 005°20'611.9
2017-Oct-16 10:30N 51°27' W 005°29'611.6
2017-Oct-16 10:00N 51°28' W 005°38'611.4
2017-Oct-16 09:30N 51°29' W 005°47'610.7
2017-Oct-16 08:59N 51°30' W 005°56'2514.0
2017-Oct-16 07:10N 51°06' W 006°08'614.1
2017-Oct-16 06:45N 50°60' W 006°10'314.0
2017-Oct-16 06:30N 50°57' W 006°12'2513.7
2017-Oct-16 04:41N 50°33' W 006°23'313.7
2017-Oct-16 04:30N 50°30' W 006°24'713.7
2017-Oct-16 04:00N 50°24' W 006°27'713.9
2017-Oct-16 03:31N 50°17' W 006°30'714.0
2017-Oct-16 03:00N 50°10' W 006°33'714.3
2017-Oct-16 02:31N 50°03' W 006°36'714.7
2017-Oct-16 02:01N 49°56' W 006°40'714.5
2017-Oct-16 01:30N 49°49' W 006°43'714.7
2017-Oct-16 01:01N 49°42' W 006°46'714.7
2017-Oct-16 00:31N 49°35' W 006°49'814.4
2017-Oct-15 23:58N 49°28' W 006°53'714.6
2017-Oct-15 23:30N 49°22' W 006°56'714.5
2017-Oct-15 23:00N 49°15' W 006°60'814.4
2017-Oct-15 22:28N 49°07' W 007°03'714.3
2017-Oct-15 21:59N 49°01' W 007°07'1114.1
2017-Oct-15 21:11N 48°50' W 007°12'313.8
2017-Oct-15 20:58N 48°47' W 007°13'7113.5
2017-Oct-15 15:43N 47°40' W 007°45'38011.1
2017-Oct-14 05:26N 41°23' W 008°53'512.1
2017-Oct-14 05:00N 41°18' W 008°51'611.9
2017-Oct-14 04:30N 41°13' W 008°48'5 9.3
2017-Oct-14 04:00N 41°10' W 008°42'2 3.4
2017-Oct-14 03:30N 41°12' W 008°41'0 0.0
2017-Oct-14 02:51N 41°12' W 008°41'0 0.0
2017-Oct-14 02:30N 41°12' W 008°41'0 0.0
2017-Oct-14 01:59N 41°12' W 008°41'0 0.0
2017-Oct-14 01:29N 41°12' W 008°41'0 0.0
2017-Oct-14 00:47N 41°12' W 008°41'0 0.0
2017-Oct-14 00:26N 41°12' W 008°41'0 0.0
2017-Oct-13 23:59N 41°12' W 008°41'0 0.0
2017-Oct-13 23:29N 41°12' W 008°41'0 0.0
2017-Oct-13 22:59N 41°12' W 008°41'0 0.0
2017-Oct-13 21:32N 41°12' W 008°41'0 0.0
2017-Oct-13 21:17N 41°12' W 008°41'0 0.0
2017-Oct-13 20:59N 41°12' W 008°41'0 0.0
2017-Oct-13 20:29N 41°12' W 008°41'0 0.0
2017-Oct-13 19:43N 41°12' W 008°41'0 0.0
2017-Oct-13 19:29N 41°12' W 008°41'0 0.0
2017-Oct-13 18:49N 41°12' W 008°41'0 0.0
2017-Oct-13 18:25N 41°12' W 008°41'0 0.0
2017-Oct-13 17:58N 41°12' W 008°41'0 0.0
2017-Oct-13 17:13N 41°12' W 008°41'0 0.0
2017-Oct-13 16:58N 41°12' W 008°41'0 0.0
2017-Oct-13 16:19N 41°12' W 008°41'0 0.0
2017-Oct-13 15:58N 41°12' W 008°41'0 0.0
2017-Oct-13 15:28N 41°12' W 008°41'0 0.0
2017-Oct-13 14:55N 41°12' W 008°41'0 0.0
2017-Oct-13 14:22N 41°12' W 008°41'0 0.0
2017-Oct-13 13:58N 41°12' W 008°41'0 0.0
2017-Oct-13 13:28N 41°12' W 008°41'0 0.0
2017-Oct-13 12:58N 41°12' W 008°41'0 0.0
2017-Oct-13 12:28N 41°12' W 008°41'0 0.0
2017-Oct-13 11:58N 41°12' W 008°41'0 0.0
2017-Oct-13 11:25N 41°12' W 008°41'0 0.0
2017-Oct-13 10:58N 41°12' W 008°41'0 0.0
2017-Oct-13 10:25N 41°12' W 008°41'0 0.0
2017-Oct-13 09:58N 41°12' W 008°41'0 0.0
2017-Oct-13 09:22N 41°12' W 008°41'0 0.0
2017-Oct-13 08:58N 41°12' W 008°41'0 0.0
2017-Oct-13 08:25N 41°12' W 008°41'0 0.0
2017-Oct-13 07:58N 41°12' W 008°41'0 0.0
2017-Oct-13 07:25N 41°12' W 008°41'0 0.0
2017-Oct-13 06:58N 41°12' W 008°41'0 0.0
2017-Oct-13 06:28N 41°12' W 008°41'0 0.0
2017-Oct-13 05:55N 41°12' W 008°41'0 0.9
2017-Oct-13 05:31N 41°11' W 008°41'3 6.0
2017-Oct-13 05:00N 41°09' W 008°43'510.9
2017-Oct-13 04:30N 41°04' W 008°48'610.9
2017-Oct-13 03:56N 40°59' W 008°51'1610.6
2017-Oct-13 02:23N 40°44' W 008°60'411.1
2017-Oct-13 02:00N 40°40' W 009°02'510.9
2017-Oct-13 01:30N 40°35' W 009°05'510.8
2017-Oct-13 01:00N 40°30' W 009°08'611.0
2017-Oct-13 00:28N 40°25' W 009°12'2711.0
2017-Oct-12 22:04N 40°01' W 009°27'1011.1
2017-Oct-12 21:09N 39°52' W 009°32'711.1
2017-Oct-12 20:33N 39°46' W 009°35'311.1
2017-Oct-12 20:18N 39°43' W 009°37'510.9
2017-Oct-12 19:52N 39°39' W 009°39'711.1
2017-Oct-12 19:14N 39°32' W 009°43'311.4
2017-Oct-12 18:59N 39°30' W 009°44'511.4
2017-Oct-12 18:31N 39°24' W 009°45'611.3
2017-Oct-12 18:00N 39°19' W 009°46'611.4
2017-Oct-12 17:30N 39°13' W 009°47'611.2
2017-Oct-12 17:00N 39°08' W 009°48'611.6
2017-Oct-12 16:30N 39°02' W 009°50'611.4
2017-Oct-12 16:00N 38°56' W 009°51'611.5
2017-Oct-12 15:30N 38°51' W 009°52'611.6
2017-Oct-12 15:00N 38°45' W 009°51'611.3
2017-Oct-12 14:30N 38°39' W 009°50'510.9
2017-Oct-12 14:00N 38°34' W 009°49'611.5
2017-Oct-12 13:30N 38°28' W 009°47'611.1
2017-Oct-12 13:00N 38°23' W 009°46'611.6
2017-Oct-12 12:29N 38°17' W 009°44'511.5
2017-Oct-12 12:00N 38°12' W 009°42'611.6
2017-Oct-12 11:29N 38°06' W 009°40'611.7
2017-Oct-12 11:00N 38°00' W 009°38'711.6
2017-Oct-12 10:25N 37°54' W 009°36'511.8
2017-Oct-12 10:00N 37°49' W 009°34'611.4
2017-Oct-12 09:30N 37°44' W 009°32'611.4
2017-Oct-12 09:00N 37°38' W 009°31'711.3
2017-Oct-12 08:24N 37°31' W 009°30'911.6
2017-Oct-12 07:36N 37°22' W 009°27'211.4
2017-Oct-12 07:26N 37°20' W 009°27'1211.9
2017-Oct-12 06:24N 37°08' W 009°23'611.7
2017-Oct-12 05:52N 37°02' W 009°21'410.9
2017-Oct-12 05:30N 36°58' W 009°20'510.8
2017-Oct-12 05:00N 36°53' W 009°18'510.6
2017-Oct-12 04:30N 36°49' W 009°14'611.0
2017-Oct-12 03:59N 36°45' W 009°09'611.6
2017-Oct-12 03:30N 36°44' W 009°02'611.5
2017-Oct-12 03:00N 36°44' W 008°55'611.0
2017-Oct-12 02:29N 36°45' W 008°48'611.2
2017-Oct-12 01:59N 36°45' W 008°41'711.5
2017-Oct-12 01:25N 36°46' W 008°33'511.3
2017-Oct-12 01:00N 36°47' W 008°27'611.1
2017-Oct-12 00:30N 36°48' W 008°20'611.4
2017-Oct-12 00:00N 36°49' W 008°13'611.4
2017-Oct-11 23:30N 36°50' W 008°06'611.9
2017-Oct-11 23:00N 36°51' W 007°59'4911.5
2017-Oct-11 18:44N 37°00' W 006°58'34 1.3
2017-Oct-10 16:39N 36°50' W 007°38'213.0
2017-Oct-10 16:30N 36°49' W 007°41'1513.1
2017-Oct-10 15:20N 36°45' W 007°59'412.7
2017-Oct-10 14:59N 36°44' W 008°04'1212.5
2017-Oct-10 14:00N 36°41' W 008°19'612.5
2017-Oct-10 13:30N 36°39' W 008°26'612.6
2017-Oct-10 13:01N 36°38' W 008°34'713.1
2017-Oct-10 12:29N 36°36' W 008°42'613.1
2017-Oct-10 12:01N 36°35' W 008°50'712.8
2017-Oct-10 11:30N 36°33' W 008°58'612.8
2017-Oct-10 11:00N 36°32' W 009°05'713.2
2017-Oct-10 10:30N 36°33' W 009°13'613.1
2017-Oct-10 10:00N 36°36' W 009°21'713.3
2017-Oct-10 09:31N 36°41' W 009°26'713.0
2017-Oct-10 09:00N 36°46' W 009°31'613.0
2017-Oct-10 08:30N 36°52' W 009°34'713.1
2017-Oct-10 08:00N 36°59' W 009°36'612.7
2017-Oct-10 07:30N 37°05' W 009°38'612.7
2017-Oct-10 07:00N 37°11' W 009°40'612.7
2017-Oct-10 06:30N 37°17' W 009°42'713.0
2017-Oct-10 05:58N 37°24' W 009°43'612.9
2017-Oct-10 05:30N 37°30' W 009°45'612.7
2017-Oct-10 05:00N 37°36' W 009°47'612.8
2017-Oct-10 04:30N 37°42' W 009°49'613.0
2017-Oct-10 04:00N 37°49' W 009°50'713.3
2017-Oct-10 03:30N 37°55' W 009°53'713.1
2017-Oct-10 03:00N 38°01' W 009°54'713.2
2017-Oct-10 02:31N 38°08' W 009°56'713.7
2017-Oct-10 02:00N 38°14' W 009°58'713.4
2017-Oct-10 01:30N 38°21' W 010°00'713.3
2017-Oct-10 01:00N 38°27' W 010°02'713.5
2017-Oct-10 00:30N 38°34' W 010°04'612.8
2017-Oct-10 00:00N 38°40' W 010°05'612.4
2017-Oct-09 23:30N 38°47' W 010°06'713.6
2017-Oct-09 23:01N 38°53' W 010°06'713.9
2017-Oct-09 22:31N 39°00' W 010°05'713.7
2017-Oct-09 22:00N 39°07' W 010°02'714.0
2017-Oct-09 21:30N 39°13' W 009°58'713.8
2017-Oct-09 21:00N 39°19' W 009°54'713.2
2017-Oct-09 20:30N 39°25' W 009°50'612.7
2017-Oct-09 20:00N 39°31' W 009°47'612.8
2017-Oct-09 19:30N 39°37' W 009°43'  
Track history (hours):
 
Tides and Currents Weather Stations Pressure Air Temp Water Temp Dewpoint Dewpoint Depression Visibility Wind Speed Wind Dir Waves Ship Positions

Anna G

Last reported at 2017-Oct-19 19:16 UTC. Time now 2017-Oct-20 11:03 UTC.
Position N 51°43' W 005°59'.

Length 101 m; draft 4.7 m.

Type: Cargo ship. MMSI: 212075000.

Date/timePositionNaut miles runAvg speedWind from/ knotsBaromVisibWave heightAir tempDewpointWater temp
2017-Oct-19 19:16N 51°43' W 005°59'3 7.1
2017-Oct-19 18:53N 51°45' W 005°57'3 6.7
2017-Oct-19 18:23N 51°49' W 005°56'3 6.6
2017-Oct-19 18:00N 51°51' W 005°55'3 6.4
2017-Oct-19 17:29N 51°54' W 005°54'3 6.2
2017-Oct-19 17:00N 51°57' W 005°54'4 7.5
2017-Oct-19 16:30N 52°01' W 005°53'4 7.8
2017-Oct-19 16:00N 52°05' W 005°53'4 8.8
2017-Oct-19 15:30N 52°09' W 005°52'510.9
2017-Oct-19 15:00N 52°15' W 005°51'612.0
2017-Oct-19 14:30N 52°21' W 005°50'612.6
2017-Oct-19 14:00N 52°27' W 005°50'713.0
2017-Oct-19 13:30N 52°33' W 005°49'713.3
2017-Oct-19 13:00N 52°40' W 005°50'3212.3
2017-Oct-19 10:26N 53°11' W 005°60'511.6
2017-Oct-19 09:59N 53°16' W 006°01'510.5
2017-Oct-19 09:28N 53°20' W 006°07'3 6.0
2017-Oct-19 08:57N 53°21' W 006°12'0 0.0
2017-Oct-19 08:27N 53°21' W 006°12'0 0.0
2017-Oct-19 04:45N 53°21' W 006°12'0 1.1
2017-Oct-19 04:30N 53°21' W 006°12'1310.3
2017-Oct-19 03:15N 53°22' W 005°50'7712.0
2017-Oct-18 20:49N 53°34' W 003°42'412.4
2017-Oct-18 20:30N 53°33' W 003°35'612.2
2017-Oct-18 20:00N 53°33' W 003°25'5 9.1
2017-Oct-18 19:31N 53°32' W 003°18'4 7.9
2017-Oct-18 19:00N 53°32' W 003°11'5 9.9
2017-Oct-18 18:30N 53°29' W 003°04'2 4.9
2017-Oct-18 18:00N 53°27' W 003°01'0 0.0
2017-Oct-18 17:30N 53°27' W 003°01'0 0.0
2017-Oct-18 17:00N 53°27' W 003°01'1 1.3
2017-Oct-18 16:30N 53°28' W 003°02'0 0.1
2017-Oct-18 15:58N 53°28' W 003°02'0 0.0
2017-Oct-18 15:28N 53°28' W 003°02'0 0.0
2017-Oct-18 14:58N 53°28' W 003°02'0 0.0
2017-Oct-18 13:55N 53°28' W 003°02'0 0.0
2017-Oct-18 13:28N 53°28' W 003°02'0 0.0
2017-Oct-18 12:58N 53°28' W 003°02'0 0.0
2017-Oct-18 12:28N 53°28' W 003°02'0 0.0
2017-Oct-18 11:55N 53°28' W 003°02'0 0.0
2017-Oct-18 11:28N 53°28' W 003°02'0 0.0
2017-Oct-18 10:58N 53°28' W 003°02'0 0.0
2017-Oct-18 10:28N 53°28' W 003°02'0 0.0
2017-Oct-18 09:55N 53°28' W 003°02'0 0.0
2017-Oct-18 09:28N 53°28' W 003°02'0 0.0
2017-Oct-18 08:58N 53°28' W 003°02'0 0.0
2017-Oct-18 08:28N 53°28' W 003°02'0 0.0
2017-Oct-18 07:55N 53°28' W 003°02'0 0.0
2017-Oct-18 07:30N 53°28' W 003°02'1 1.3
2017-Oct-18 07:01N 53°27' W 003°01'0 0.2
2017-Oct-18 06:30N 53°27' W 003°01'0 0.5
2017-Oct-18 06:00N 53°27' W 003°01'0 1.0
2017-Oct-18 05:30N 53°27' W 003°02'3 5.8
2017-Oct-18 05:00N 53°29' W 003°05'4 8.5
2017-Oct-18 04:30N 53°32' W 003°11'510.2
2017-Oct-18 04:00N 53°31' W 003°20'4 7.6
2017-Oct-18 03:30N 53°31' W 003°26'4 8.1
2017-Oct-18 03:00N 53°31' W 003°33'4 7.7
2017-Oct-18 02:30N 53°31' W 003°39'4 7.5
2017-Oct-18 02:00N 53°31' W 003°46'4 7.6
2017-Oct-18 01:30N 53°31' W 003°52'5 9.4
2017-Oct-18 01:01N 53°30' W 003°60'5 9.6
2017-Oct-18 00:30N 53°30' W 004°08'12810.0
2017-Oct-17 11:44N 51°37' W 005°46'311.2
2017-Oct-17 11:30N 51°36' W 005°43'511.0
2017-Oct-17 11:00N 51°34' W 005°35'510.9
2017-Oct-17 10:30N 51°32' W 005°27'510.8
2017-Oct-17 10:00N 51°29' W 005°19'510.9
2017-Oct-17 09:30N 51°26' W 005°12'611.4
2017-Oct-17 09:00N 51°23' W 005°04'611.5
2017-Oct-17 08:30N 51°20' W 004°56'1611.7
2017-Oct-17 07:07N 51°13' W 004°33'112.3
2017-Oct-17 07:00N 51°11' W 004°32'11 1.6
2017-Oct-17 00:19N 51°02' W 004°23'0 0.1
2017-Oct-16 18:44N 51°02' W 004°23'1 0.2
2017-Oct-16 16:20N 51°02' W 004°23'0 0.3
2017-Oct-16 15:59N 51°02' W 004°23'0 0.9
2017-Oct-16 15:30N 51°02' W 004°23'3 7.0
2017-Oct-16 15:00N 51°06' W 004°24'9 8.7
2017-Oct-16 14:00N 51°13' W 004°30'610.0
2017-Oct-16 13:27N 51°17' W 004°36'510.7
2017-Oct-16 12:58N 51°20' W 004°43'511.4
2017-Oct-16 12:30N 51°23' W 004°51'611.6
2017-Oct-16 12:00N 51°24' W 004°60'612.7
2017-Oct-16 11:30N 51°25' W 005°10'612.3
2017-Oct-16 11:00N 51°26' W 005°20'611.9
2017-Oct-16 10:30N 51°27' W 005°29'611.6
2017-Oct-16 10:00N 51°28' W 005°38'611.4
2017-Oct-16 09:30N 51°29' W 005°47'610.7
2017-Oct-16 08:59N 51°30' W 005°56'2514.0
2017-Oct-16 07:10N 51°06' W 006°08'614.1
2017-Oct-16 06:45N 50°60' W 006°10'314.0
2017-Oct-16 06:30N 50°57' W 006°12'2513.7
2017-Oct-16 04:41N 50°33' W 006°23'313.7
2017-Oct-16 04:30N 50°30' W 006°24'713.7
2017-Oct-16 04:00N 50°24' W 006°27'713.9
2017-Oct-16 03:31N 50°17' W 006°30'714.0
2017-Oct-16 03:00N 50°10' W 006°33'714.3
2017-Oct-16 02:31N 50°03' W 006°36'714.7
2017-Oct-16 02:01N 49°56' W 006°40'714.5
2017-Oct-16 01:30N 49°49' W 006°43'714.7
2017-Oct-16 01:01N 49°42' W 006°46'714.7
2017-Oct-16 00:31N 49°35' W 006°49'814.4
2017-Oct-15 23:58N 49°28' W 006°53'714.6
2017-Oct-15 23:30N 49°22' W 006°56'714.5
2017-Oct-15 23:00N 49°15' W 006°60'814.4
2017-Oct-15 22:28N 49°07' W 007°03'714.3
2017-Oct-15 21:59N 49°01' W 007°07'1114.1
2017-Oct-15 21:11N 48°50' W 007°12'313.8
2017-Oct-15 20:58N 48°47' W 007°13'7113.5
2017-Oct-15 15:43N 47°40' W 007°45'38011.1
2017-Oct-14 05:26N 41°23' W 008°53'512.1
2017-Oct-14 05:00N 41°18' W 008°51'611.9
2017-Oct-14 04:30N 41°13' W 008°48'5 9.3
2017-Oct-14 04:00N 41°10' W 008°42'2 3.4
2017-Oct-14 03:30N 41°12' W 008°41'0 0.0
2017-Oct-14 02:51N 41°12' W 008°41'0 0.0
2017-Oct-14 02:30N 41°12' W 008°41'0 0.0
2017-Oct-14 01:59N 41°12' W 008°41'0 0.0
2017-Oct-14 01:29N 41°12' W 008°41'0 0.0
2017-Oct-14 00:47N 41°12' W 008°41'0 0.0
2017-Oct-14 00:26N 41°12' W 008°41'0 0.0
2017-Oct-13 23:59N 41°12' W 008°41'0 0.0
2017-Oct-13 23:29N 41°12' W 008°41'0 0.0
2017-Oct-13 22:59N 41°12' W 008°41'0 0.0
2017-Oct-13 21:32N 41°12' W 008°41'0 0.0
2017-Oct-13 21:17N 41°12' W 008°41'0 0.0
2017-Oct-13 20:59N 41°12' W 008°41'0 0.0
2017-Oct-13 20:29N 41°12' W 008°41'0 0.0
2017-Oct-13 19:43N 41°12' W 008°41'0 0.0
2017-Oct-13 19:29N 41°12' W 008°41'0 0.0
2017-Oct-13 18:49N 41°12' W 008°41'0 0.0
2017-Oct-13 18:25N 41°12' W 008°41'0 0.0
2017-Oct-13 17:58N 41°12' W 008°41'0 0.0
2017-Oct-13 17:13N 41°12' W 008°41'0 0.0
2017-Oct-13 16:58N 41°12' W 008°41'0 0.0
2017-Oct-13 16:19N 41°12' W 008°41'0 0.0
2017-Oct-13 15:58N 41°12' W 008°41'0 0.0
2017-Oct-13 15:28N 41°12' W 008°41'0 0.0
2017-Oct-13 14:55N 41°12' W 008°41'0 0.0
2017-Oct-13 14:22N 41°12' W 008°41'0 0.0
2017-Oct-13 13:58N 41°12' W 008°41'0 0.0
2017-Oct-13 13:28N 41°12' W 008°41'0 0.0
2017-Oct-13 12:58N 41°12' W 008°41'0 0.0
2017-Oct-13 12:28N 41°12' W 008°41'0 0.0
2017-Oct-13 11:58N 41°12' W 008°41'0 0.0
2017-Oct-13 11:25N 41°12' W 008°41'0 0.0
2017-Oct-13 10:58N 41°12' W 008°41'0 0.0
2017-Oct-13 10:25N 41°12' W 008°41'0 0.0
2017-Oct-13 09:58N 41°12' W 008°41'0 0.0
2017-Oct-13 09:22N 41°12' W 008°41'0 0.0
2017-Oct-13 08:58N 41°12' W 008°41'0 0.0
2017-Oct-13 08:25N 41°12' W 008°41'0 0.0
2017-Oct-13 07:58N 41°12' W 008°41'0 0.0
2017-Oct-13 07:25N 41°12' W 008°41'0 0.0
2017-Oct-13 06:58N 41°12' W 008°41'0 0.0
2017-Oct-13 06:28N 41°12' W 008°41'0 0.0
2017-Oct-13 05:55N 41°12' W 008°41'0 0.9
2017-Oct-13 05:31N 41°11' W 008°41'3 6.0
2017-Oct-13 05:00N 41°09' W 008°43'510.9
2017-Oct-13 04:30N 41°04' W 008°48'610.9
2017-Oct-13 03:56N 40°59' W 008°51'1610.6
2017-Oct-13 02:23N 40°44' W 008°60'411.1
2017-Oct-13 02:00N 40°40' W 009°02'510.9
2017-Oct-13 01:30N 40°35' W 009°05'510.8
2017-Oct-13 01:00N 40°30' W 009°08'611.0
2017-Oct-13 00:28N 40°25' W 009°12'2711.0
2017-Oct-12 22:04N 40°01' W 009°27'1011.1
2017-Oct-12 21:09N 39°52' W 009°32'711.1
2017-Oct-12 20:33N 39°46' W 009°35'311.1
2017-Oct-12 20:18N 39°43' W 009°37'510.9
2017-Oct-12 19:52N 39°39' W 009°39'711.1
2017-Oct-12 19:14N 39°32' W 009°43'311.4
2017-Oct-12 18:59N 39°30' W 009°44'511.4
2017-Oct-12 18:31N 39°24' W 009°45'611.3
2017-Oct-12 18:00N 39°19' W 009°46'611.4
2017-Oct-12 17:30N 39°13' W 009°47'611.2
2017-Oct-12 17:00N 39°08' W 009°48'611.6
2017-Oct-12 16:30N 39°02' W 009°50'611.4
2017-Oct-12 16:00N 38°56' W 009°51'611.5
2017-Oct-12 15:30N 38°51' W 009°52'611.6
2017-Oct-12 15:00N 38°45' W 009°51'611.3
2017-Oct-12 14:30N 38°39' W 009°50'510.9
2017-Oct-12 14:00N 38°34' W 009°49'611.5
2017-Oct-12 13:30N 38°28' W 009°47'611.1
2017-Oct-12 13:00N 38°23' W 009°46'611.6
2017-Oct-12 12:29N 38°17' W 009°44'511.5
2017-Oct-12 12:00N 38°12' W 009°42'611.6
2017-Oct-12 11:29N 38°06' W 009°40'611.7
2017-Oct-12 11:00N 38°00' W 009°38'711.6
2017-Oct-12 10:25N 37°54' W 009°36'511.8
2017-Oct-12 10:00N 37°49' W 009°34'611.4
2017-Oct-12 09:30N 37°44' W 009°32'611.4
2017-Oct-12 09:00N 37°38' W 009°31'711.3
2017-Oct-12 08:24N 37°31' W 009°30'911.6
2017-Oct-12 07:36N 37°22' W 009°27'211.4
2017-Oct-12 07:26N 37°20' W 009°27'1211.9
2017-Oct-12 06:24N 37°08' W 009°23'611.7
2017-Oct-12 05:52N 37°02' W 009°21'410.9
2017-Oct-12 05:30N 36°58' W 009°20'510.8
2017-Oct-12 05:00N 36°53' W 009°18'510.6
2017-Oct-12 04:30N 36°49' W 009°14'611.0
2017-Oct-12 03:59N 36°45' W 009°09'611.6
2017-Oct-12 03:30N 36°44' W 009°02'611.5
2017-Oct-12 03:00N 36°44' W 008°55'611.0
2017-Oct-12 02:29N 36°45' W 008°48'611.2
2017-Oct-12 01:59N 36°45' W 008°41'711.5
2017-Oct-12 01:25N 36°46' W 008°33'511.3
2017-Oct-12 01:00N 36°47' W 008°27'611.1
2017-Oct-12 00:30N 36°48' W 008°20'611.4
2017-Oct-12 00:00N 36°49' W 008°13'611.4
2017-Oct-11 23:30N 36°50' W 008°06'611.9
2017-Oct-11 23:00N 36°51' W 007°59'4911.5
2017-Oct-11 18:44N 37°00' W 006°58'34 1.3
2017-Oct-10 16:39N 36°50' W 007°38'213.0
2017-Oct-10 16:30N 36°49' W 007°41'1513.1
2017-Oct-10 15:20N 36°45' W 007°59'412.7
2017-Oct-10 14:59N 36°44' W 008°04'1212.5
2017-Oct-10 14:00N 36°41' W 008°19'612.5
2017-Oct-10 13:30N 36°39' W 008°26'612.6
2017-Oct-10 13:01N 36°38' W 008°34'713.1
2017-Oct-10 12:29N 36°36' W 008°42'613.1
2017-Oct-10 12:01N 36°35' W 008°50'712.8
2017-Oct-10 11:30N 36°33' W 008°58'612.8
2017-Oct-10 11:00N 36°32' W 009°05'713.2
2017-Oct-10 10:30N 36°33' W 009°13'613.1
2017-Oct-10 10:00N 36°36' W 009°21'713.3
2017-Oct-10 09:31N 36°41' W 009°26'713.0
2017-Oct-10 09:00N 36°46' W 009°31'613.0
2017-Oct-10 08:30N 36°52' W 009°34'713.1
2017-Oct-10 08:00N 36°59' W 009°36'612.7
2017-Oct-10 07:30N 37°05' W 009°38'612.7
2017-Oct-10 07:00N 37°11' W 009°40'612.7
2017-Oct-10 06:30N 37°17' W 009°42'713.0
2017-Oct-10 05:58N 37°24' W 009°43'612.9
2017-Oct-10 05:30N 37°30' W 009°45'612.7
2017-Oct-10 05:00N 37°36' W 009°47'612.8
2017-Oct-10 04:30N 37°42' W 009°49'613.0
2017-Oct-10 04:00N 37°49' W 009°50'713.3
2017-Oct-10 03:30N 37°55' W 009°53'713.1
2017-Oct-10 03:00N 38°01' W 009°54'713.2
2017-Oct-10 02:31N 38°08' W 009°56'713.7
2017-Oct-10 02:00N 38°14' W 009°58'713.4
2017-Oct-10 01:30N 38°21' W 010°00'713.3
2017-Oct-10 01:00N 38°27' W 010°02'713.5
2017-Oct-10 00:30N 38°34' W 010°04'612.8
2017-Oct-10 00:00N 38°40' W 010°05'612.4
2017-Oct-09 23:30N 38°47' W 010°06'713.6
2017-Oct-09 23:01N 38°53' W 010°06'713.9
2017-Oct-09 22:31N 39°00' W 010°05'713.7
2017-Oct-09 22:00N 39°07' W 010°02'714.0
2017-Oct-09 21:30N 39°13' W 009°58'713.8
2017-Oct-09 21:00N 39°19' W 009°54'713.2
2017-Oct-09 20:30N 39°25' W 009°50'612.7
2017-Oct-09 20:00N 39°31' W 009°47'612.8
2017-Oct-09 19:30N 39°37' W 009°43'  

Dump ship's entire track history